Time;durP1;ratioP1;P1;durP2;ratioP2;P2;SDS_P1;SDS_P2;PMS_P1;PMS_P2;Temp;Humidity;BMP_temperature;BMP_pressure;BME280_temperature;BME280_humidity;BME280_pressure;Samples;Min_cycle;Max_cycle;Signal;HPM_P1;HPM_P2
2023/11/24 00:00:13;;;;;;;1.07;0.60;;;;;;;;;;523159;28;1353;-70
2023/11/24 00:00:28;;;;;;;0.93;0.50;;;;;;;;;;523825;28;1479;-70
2023/11/24 00:00:43;;;;;;;1.00;0.60;;;;;;;;;;522961;28;1392;-70
2023/11/24 00:00:58;;;;;;;0.90;0.70;;;;;;;;;;523171;28;1843;-70
2023/11/24 00:01:14;;;;;;;0.85;0.68;;;;;;;;;;523045;28;1357;-71
2023/11/24 00:01:30;;;;;;;1.30;0.70;;;;;;;;;;522581;28;1186;-70
2023/11/24 00:01:47;;;;;;;1.17;0.70;;;;;;;;;;520982;28;1309;-70
2023/11/24 00:02:02;;;;;;;0.70;0.60;;;;;;;;;;520092;28;1833;-69
2023/11/24 00:02:18;;;;;;;1.10;0.67;;;;;;;;;;521213;28;1484;-70
2023/11/24 00:02:33;;;;;;;1.33;0.70;;;;;;;;;;519046;28;1900;-71
2023/11/24 00:02:48;;;;;;;1.50;0.80;;;;;;;;;;516416;28;1404;-71
2023/11/24 00:03:04;;;;;;;1.10;0.73;;;;;;;;;;516307;28;1500;-70
2023/11/24 00:03:19;;;;;;;0.80;0.70;;;;;;;;;;516629;28;1591;-70
2023/11/24 00:03:34;;;;;;;1.00;0.70;;;;;;;;;;515075;28;1430;-70
2023/11/24 00:03:49;;;;;;;0.70;0.60;;;;;;;;;;514579;28;1152;-70
2023/11/24 00:04:05;;;;;;;1.17;0.80;;;;;;;;;;514821;28;1426;-71
2023/11/24 00:04:20;;;;;;;1.40;0.80;;;;;;;;;;515455;28;1878;-70
2023/11/24 00:04:35;;;;;;;1.30;0.70;;;;;;;;;;515127;28;2689;-70
2023/11/24 00:04:51;;;;;;;1.50;0.70;;;;;;;;;;517139;28;1232;-70
2023/11/24 00:05:07;;;;;;;1.50;0.70;;;;;;;;;;515037;28;1136;-70
2023/11/24 00:05:22;;;;;;;1.02;0.52;;;;;;;;;;512584;28;1388;-70
2023/11/24 00:05:38;;;;;;;0.68;0.50;;;;;;;;;;513069;28;1423;-71
2023/11/24 00:05:53;;;;;;;0.90;0.60;;;;;;;;;;512411;28;1907;-70
2023/11/24 00:06:09;;;;;;;1.10;0.68;;;;;;;;;;512946;28;1451;-70
2023/11/24 00:06:25;;;;;;;0.70;0.60;;;;;;;;;;512431;28;1812;-70
2023/11/24 00:06:41;;;;;;;0.90;0.70;;;;;;;;;;514927;28;1090;-70
2023/11/24 00:06:57;;;;;;;1.05;0.70;;;;;;;;;;515548;28;1422;-70
2023/11/24 00:07:13;;;;;;;1.33;0.70;;;;;;;;;;517877;28;1410;-71
2023/11/24 00:07:29;;;;;;;1.40;0.70;;;;;;;;;;519553;28;1859;-70
2023/11/24 00:07:45;;;;;;;1.17;0.60;;;;;;;;;;521182;28;1464;-70
2023/11/24 00:08:01;;;;;;;1.00;0.63;;;;;;;;;;521386;28;1234;-70
2023/11/24 00:08:16;;;;;;;1.00;0.70;;;;;;;;;;523281;28;1369;-71
2023/11/24 00:08:32;;;;;;;0.85;0.65;;;;;;;;;;520760;28;1394;-70
2023/11/24 00:08:47;;;;;;;1.03;0.67;;;;;;;;;;520530;28;1385;-70
2023/11/24 00:09:03;;;;;;;1.20;0.70;;;;;;;;;;520968;28;1842;-70
2023/11/24 00:09:18;;;;;;;0.97;0.60;;;;;;;;;;521276;28;1227;-70
2023/11/24 00:09:35;;;;;;;0.88;0.60;;;;;;;;;;521279;28;1362;-71
2023/11/24 00:09:50;;;;;;;1.00;0.60;;;;;;;;;;521091;28;1382;-70
2023/11/24 00:10:07;;;;;;;0.88;0.60;;;;;;;;;;521107;28;1512;-71
2023/11/24 00:10:23;;;;;;;0.70;0.60;;;;;;;;;;520706;28;2034;-70
2023/11/24 00:10:38;;;;;;;0.88;0.60;;;;;;;;;;522159;28;1814;-70
2023/11/24 00:10:54;;;;;;;1.50;0.60;;;;;;;;;;522947;28;1893;-70
2023/11/24 00:11:10;;;;;;;2.30;0.60;;;;;;;;;;522185;28;1844;-71
2023/11/24 00:11:26;;;;;;;1.70;0.60;;;;;;;;;;523229;28;1412;-70
2023/11/24 00:11:42;;;;;;;0.93;0.60;;;;;;;;;;521808;28;1533;-70
2023/11/24 00:11:58;;;;;;;1.13;0.60;;;;;;;;;;518936;28;1325;-71
2023/11/24 00:12:14;;;;;;;1.17;0.70;;;;;;;;;;518813;28;1276;-70
2023/11/24 00:12:30;;;;;;;0.93;0.67;;;;;;;;;;519267;28;1839;-71
2023/11/24 00:12:46;;;;;;;0.73;0.60;;;;;;;;;;518603;28;1213;-71
2023/11/24 00:13:01;;;;;;;1.10;0.60;;;;;;;;;;519122;28;1393;-70
2023/11/24 00:13:18;;;;;;;1.17;0.60;;;;;;;;;;517954;28;1394;-70
2023/11/24 00:13:34;;;;;;;1.30;0.63;;;;;;;;;;516463;28;1311;-70
2023/11/24 00:13:49;;;;;;;1.30;0.60;;;;;;;;;;516533;28;1362;-71
2023/11/24 00:14:05;;;;;;;0.65;0.57;;;;;;;;;;517001;28;1546;-70
2023/11/24 00:14:20;;;;;;;1.60;0.60;;;;;;;;;;514350;28;2147;-70
2023/11/24 00:14:35;;;;;;;1.30;0.52;;;;;;;;;;513431;28;1426;-71
2023/11/24 00:14:51;;;;;;;0.70;0.50;;;;;;;;;;512703;28;1337;-70
2023/11/24 00:15:06;;;;;;;0.97;0.60;;;;;;;;;;513565;28;1435;-70
2023/11/24 00:15:22;;;;;;;0.82;0.60;;;;;;;;;;515457;28;1445;-70
2023/11/24 00:15:37;;;;;;;0.53;0.50;;;;;;;;;;517061;28;1456;-70
2023/11/24 00:15:53;;;;;;;0.50;0.45;;;;;;;;;;517330;28;2437;-70
2023/11/24 00:16:08;;;;;;;0.50;0.47;;;;;;;;;;519231;28;2239;-70
2023/11/24 00:16:23;;;;;;;0.63;0.50;;;;;;;;;;519326;28;1435;-70
2023/11/24 00:16:39;;;;;;;1.03;0.60;;;;;;;;;;520839;28;1377;-70
2023/11/24 00:16:54;;;;;;;1.13;0.60;;;;;;;;;;520978;28;1416;-70
2023/11/24 00:17:10;;;;;;;1.05;0.60;;;;;;;;;;521211;28;1329;-70
2023/11/24 00:17:25;;;;;;;1.03;0.57;;;;;;;;;;521103;28;1400;-70
2023/11/24 00:17:40;;;;;;;1.25;0.60;;;;;;;;;;520952;28;1839;-70
2023/11/24 00:17:56;;;;;;;1.07;0.57;;;;;;;;;;521202;28;1449;-70
2023/11/24 00:18:12;;;;;;;0.85;0.60;;;;;;;;;;521376;28;1404;-71
2023/11/24 00:18:27;;;;;;;1.10;0.60;;;;;;;;;;523105;28;1428;-70
2023/11/24 00:18:43;;;;;;;1.30;0.60;;;;;;;;;;523047;28;1452;-70
2023/11/24 00:18:58;;;;;;;1.07;0.53;;;;;;;;;;522672;28;1538;-70
2023/11/24 00:19:15;;;;;;;1.10;0.60;;;;;;;;;;520197;28;1744;-70
2023/11/24 00:19:31;;;;;;;1.10;0.60;;;;;;;;;;518083;28;1562;-70
2023/11/24 00:19:47;;;;;;;1.00;0.50;;;;;;;;;;519117;28;1334;-70
2023/11/24 00:20:04;;;;;;;1.00;0.50;;;;;;;;;;517091;28;1355;-71
2023/11/24 00:20:20;;;;;;;0.77;0.50;;;;;;;;;;516920;28;1449;-70
2023/11/24 00:20:35;;;;;;;0.70;0.43;;;;;;;;;;514983;28;1709;-70
2023/11/24 00:20:51;;;;;;;0.50;0.40;;;;;;;;;;514732;28;2177;-70
2023/11/24 00:21:09;;;;;;;0.50;0.40;;;;;;;;;;516894;28;1370;-70
2023/11/24 00:21:25;;;;;;;0.52;0.40;;;;;;;;;;517354;28;1393;-70
2023/11/24 00:21:46;;;;;;;0.70;0.47;;;;;;;;;;516824;28;1287;-70
2023/11/24 00:22:02;;;;;;;1.30;0.50;;;;;;;;;;516921;28;1421;-70
2023/11/24 00:22:17;;;;;;;0.82;0.50;;;;;;;;;;517290;28;1382;-70
2023/11/24 00:22:33;;;;;;;1.03;0.43;;;;;;;;;;517650;28;1851;-70
2023/11/24 00:22:48;;;;;;;0.90;0.40;;;;;;;;;;519955;28;1449;-70
2023/11/24 00:23:04;;;;;;;0.53;0.50;;;;;;;;;;519691;28;1492;-70
2023/11/24 00:23:19;;;;;;;0.65;0.40;;;;;;;;;;518471;28;1343;-70
2023/11/24 00:23:36;;;;;;;0.50;0.40;;;;;;;;;;518263;28;1398;-70
2023/11/24 00:23:51;;;;;;;0.47;0.40;;;;;;;;;;518542;28;1322;-70
2023/11/24 00:24:07;;;;;;;0.60;0.40;;;;;;;;;;519029;28;1677;-70
2023/11/24 00:24:23;;;;;;;0.80;0.40;;;;;;;;;;518934;28;1526;-70
2023/11/24 00:24:38;;;;;;;0.77;0.40;;;;;;;;;;518908;28;1503;-70
2023/11/24 00:24:54;;;;;;;1.17;0.40;;;;;;;;;;518960;28;1508;-70
2023/11/24 00:25:09;;;;;;;1.40;0.40;;;;;;;;;;519000;28;1346;-70
2023/11/24 00:25:24;;;;;;;1.10;0.40;;;;;;;;;;521823;28;1421;-70
2023/11/24 00:25:40;;;;;;;0.83;0.43;;;;;;;;;;522727;28;1908;-70
2023/11/24 00:25:55;;;;;;;0.60;0.40;;;;;;;;;;523004;28;2107;-70
2023/11/24 00:26:10;;;;;;;0.60;0.45;;;;;;;;;;523334;28;1368;-70
2023/11/24 00:26:26;;;;;;;0.87;0.47;;;;;;;;;;522681;28;1090;-70
2023/11/24 00:26:41;;;;;;;1.25;0.50;;;;;;;;;;523151;28;1644;-70
2023/11/24 00:26:58;;;;;;;1.10;0.50;;;;;;;;;;523402;28;1392;-70
2023/11/24 00:27:13;;;;;;;0.73;0.50;;;;;;;;;;523111;28;1420;-70
2023/11/24 00:27:29;;;;;;;0.70;0.50;;;;;;;;;;522558;28;1393;-70
2023/11/24 00:27:44;;;;;;;0.95;0.50;;;;;;;;;;522190;28;1485;-70
2023/11/24 00:27:59;;;;;;;0.90;0.50;;;;;;;;;;519491;28;1845;-70
2023/11/24 00:28:14;;;;;;;0.70;0.50;;;;;;;;;;521067;28;1507;-70
2023/11/24 00:28:30;;;;;;;0.70;0.50;;;;;;;;;;520293;28;1381;-70
2023/11/24 00:28:45;;;;;;;0.77;0.52;;;;;;;;;;520802;28;1412;-70
2023/11/24 00:29:00;;;;;;;0.73;0.50;;;;;;;;;;520409;28;2035;-70
2023/11/24 00:29:15;;;;;;;0.80;0.50;;;;;;;;;;519050;28;1341;-70
2023/11/24 00:29:31;;;;;;;0.68;0.50;;;;;;;;;;518869;28;1295;-70
2023/11/24 00:29:49;;;;;;;0.57;0.50;;;;;;;;;;519433;28;1251;-70
2023/11/24 00:30:04;;;;;;;0.50;0.50;;;;;;;;;;521065;28;1377;-70
2023/11/24 00:30:20;;;;;;;0.60;0.40;;;;;;;;;;520999;28;1409;-70
2023/11/24 00:30:35;;;;;;;1.53;0.50;;;;;;;;;;520071;28;1405;-70
2023/11/24 00:30:50;;;;;;;1.57;0.60;;;;;;;;;;520261;28;2190;-70
2023/11/24 00:31:07;;;;;;;0.80;0.50;;;;;;;;;;521401;28;1213;-70
2023/11/24 00:31:26;;;;;;;1.02;0.52;;;;;;;;;;523088;28;1495;-70
2023/11/24 00:31:41;;;;;;;1.10;0.60;;;;;;;;;;521549;28;1364;-70
2023/11/24 00:31:57;;;;;;;0.70;0.50;;;;;;;;;;520962;28;1459;-70
2023/11/24 00:32:14;;;;;;;0.98;0.50;;;;;;;;;;519867;28;1385;-70
2023/11/24 00:32:29;;;;;;;1.60;0.63;;;;;;;;;;520770;28;1905;-71
2023/11/24 00:32:46;;;;;;;1.50;0.60;;;;;;;;;;521109;28;1408;-70
2023/11/24 00:33:02;;;;;;;0.85;0.47;;;;;;;;;;520533;28;1238;-70
2023/11/24 00:33:18;;;;;;;0.80;0.40;;;;;;;;;;520598;28;1385;-70
2023/11/24 00:33:36;;;;;;;1.52;0.43;;;;;;;;;;520161;28;1352;-70
2023/11/24 00:33:58;;;;;;;1.80;0.60;;;;;;;;;;521283;28;1381;-70
2023/11/24 00:34:14;;;;;;;1.65;0.50;;;;;;;;;;522616;28;2123;-70
2023/11/24 00:34:30;;;;;;;2.00;0.50;;;;;;;;;;523321;28;1245;-70
2023/11/24 00:34:46;;;;;;;1.50;0.60;;;;;;;;;;523271;28;1432;-70
2023/11/24 00:35:01;;;;;;;1.53;0.60;;;;;;;;;;520968;28;1479;-70
2023/11/24 00:35:17;;;;;;;1.17;0.60;;;;;;;;;;520334;28;1393;-70
2023/11/24 00:35:32;;;;;;;0.85;0.60;;;;;;;;;;518850;28;1460;-70
2023/11/24 00:35:49;;;;;;;1.05;0.60;;;;;;;;;;518861;28;2218;-70
2023/11/24 00:36:07;;;;;;;0.77;0.50;;;;;;;;;;519159;28;1459;-70
2023/11/24 00:36:22;;;;;;;0.75;0.50;;;;;;;;;;518693;28;1259;-69
2023/11/24 00:36:38;;;;;;;0.87;0.60;;;;;;;;;;518817;28;1396;-70
2023/11/24 00:36:53;;;;;;;1.13;0.70;;;;;;;;;;519226;28;1777;-70
2023/11/24 00:37:09;;;;;;;1.10;0.70;;;;;;;;;;521139;28;1274;-70
2023/11/24 00:37:24;;;;;;;1.02;0.65;;;;;;;;;;521942;28;2225;-70
2023/11/24 00:37:40;;;;;;;2.47;0.80;;;;;;;;;;523128;28;1380;-70
2023/11/24 00:37:56;;;;;;;2.53;0.73;;;;;;;;;;522825;28;1427;-70
2023/11/24 00:38:11;;;;;;;1.63;0.70;;;;;;;;;;522960;28;1219;-70
2023/11/24 00:38:27;;;;;;;1.73;0.77;;;;;;;;;;521315;28;1535;-70
2023/11/24 00:38:43;;;;;;;1.10;0.70;;;;;;;;;;520232;28;1381;-70
2023/11/24 00:38:58;;;;;;;1.57;0.70;;;;;;;;;;519477;28;1905;-70
2023/11/24 00:39:13;;;;;;;2.37;0.90;;;;;;;;;;521431;28;1314;-70
2023/11/24 00:39:28;;;;;;;2.30;0.90;;;;;;;;;;521032;28;1112;-71
2023/11/24 00:39:49;;;;;;;1.58;0.80;;;;;;;;;;521112;28;1329;-70
2023/11/24 00:40:07;;;;;;;1.15;0.68;;;;;;;;;;520784;28;1214;-70
2023/11/24 00:40:23;;;;;;;1.35;0.80;;;;;;;;;;520018;28;1345;-70
2023/11/24 00:40:40;;;;;;;1.10;0.70;;;;;;;;;;522226;28;1848;-70
2023/11/24 00:40:55;;;;;;;1.33;0.80;;;;;;;;;;523317;28;1353;-70
2023/11/24 00:41:13;;;;;;;2.30;0.95;;;;;;;;;;521107;28;1448;-70
2023/11/24 00:41:28;;;;;;;2.38;0.80;;;;;;;;;;519313;28;1303;-70
2023/11/24 00:41:43;;;;;;;1.37;0.80;;;;;;;;;;519037;28;1294;-70
2023/11/24 00:42:01;;;;;;;1.58;0.85;;;;;;;;;;518920;28;1413;-70
2023/11/24 00:42:17;;;;;;;2.35;0.90;;;;;;;;;;518998;28;1827;-70
2023/11/24 00:42:32;;;;;;;2.33;0.90;;;;;;;;;;519596;28;1462;-70
2023/11/24 00:42:47;;;;;;;1.40;0.80;;;;;;;;;;519175;28;1532;-70
2023/11/24 00:43:04;;;;;;;1.42;0.80;;;;;;;;;;520041;28;1523;-70
2023/11/24 00:43:20;;;;;;;1.55;0.70;;;;;;;;;;521491;28;1346;-70
2023/11/24 00:43:38;;;;;;;1.90;0.80;;;;;;;;;;523315;28;1400;-70
2023/11/24 00:43:54;;;;;;;1.58;0.80;;;;;;;;;;522038;28;1863;-70
2023/11/24 00:44:09;;;;;;;1.70;0.80;;;;;;;;;;523271;28;1372;-70
2023/11/24 00:44:25;;;;;;;2.00;0.70;;;;;;;;;;523082;28;1419;-70
2023/11/24 00:44:40;;;;;;;2.60;0.80;;;;;;;;;;520597;28;1338;-70
2023/11/24 00:44:56;;;;;;;2.33;0.95;;;;;;;;;;518159;28;1788;-70
2023/11/24 00:45:12;;;;;;;2.20;0.90;;;;;;;;;;518923;28;1345;-70
2023/11/24 00:45:27;;;;;;;1.83;0.82;;;;;;;;;;518733;28;1895;-70
2023/11/24 00:45:43;;;;;;;1.27;0.80;;;;;;;;;;519124;28;1381;-70
2023/11/24 00:45:58;;;;;;;1.80;1.00;;;;;;;;;;518153;28;1914;-70
2023/11/24 00:46:13;;;;;;;1.83;1.00;;;;;;;;;;519002;28;1389;-70
2023/11/24 00:46:29;;;;;;;1.30;0.90;;;;;;;;;;519530;28;1137;-69
2023/11/24 00:46:44;;;;;;;1.80;0.90;;;;;;;;;;521269;28;1475;-70
2023/11/24 00:47:00;;;;;;;2.30;0.90;;;;;;;;;;522456;28;1972;-70
2023/11/24 00:47:15;;;;;;;2.43;1.00;;;;;;;;;;522836;28;1384;-70
2023/11/24 00:47:31;;;;;;;2.20;1.00;;;;;;;;;;523741;28;1498;-70
2023/11/24 00:47:46;;;;;;;1.40;1.00;;;;;;;;;;523596;28;941;-70
2023/11/24 00:48:02;;;;;;;1.83;1.00;;;;;;;;;;523620;28;806;-71
2023/11/24 00:48:19;;;;;;;2.37;1.00;;;;;;;;;;523872;28;1048;-70
2023/11/24 00:48:35;;;;;;;2.67;1.20;;;;;;;;;;523843;28;1181;-71
2023/11/24 00:48:51;;;;;;;2.05;1.10;;;;;;;;;;523167;28;883;-70
2023/11/24 00:49:06;;;;;;;2.05;1.00;;;;;;;;;;521782;28;1266;-71
2023/11/24 00:49:22;;;;;;;2.50;1.10;;;;;;;;;;519376;28;1188;-70
2023/11/24 00:49:39;;;;;;;3.13;1.00;;;;;;;;;;519787;28;800;-71
2023/11/24 00:49:54;;;;;;;3.00;0.95;;;;;;;;;;516782;28;1816;-70
2023/11/24 00:50:09;;;;;;;2.67;1.00;;;;;;;;;;517567;28;825;-71
2023/11/24 00:50:25;;;;;;;1.97;1.10;;;;;;;;;;516127;28;1149;-70
2023/11/24 00:50:40;;;;;;;3.73;1.10;;;;;;;;;;517384;28;1113;-70
2023/11/24 00:50:55;;;;;;;3.53;0.90;;;;;;;;;;517987;28;990;-70
2023/11/24 00:51:11;;;;;;;1.97;1.00;;;;;;;;;;520100;28;862;-70
2023/11/24 00:51:26;;;;;;;2.00;1.00;;;;;;;;;;523086;28;1168;-70
2023/11/24 00:51:41;;;;;;;2.10;0.90;;;;;;;;;;521600;28;969;-71
2023/11/24 00:51:56;;;;;;;2.92;1.00;;;;;;;;;;521277;28;870;-70
2023/11/24 00:52:12;;;;;;;3.00;1.00;;;;;;;;;;519759;28;811;-70
2023/11/24 00:52:27;;;;;;;1.93;0.90;;;;;;;;;;523203;28;1076;-70
2023/11/24 00:52:42;;;;;;;1.57;0.90;;;;;;;;;;521561;28;1033;-71
2023/11/24 00:53:01;;;;;;;1.58;0.90;;;;;;;;;;521812;28;780;-70
2023/11/24 00:53:16;;;;;;;2.17;1.00;;;;;;;;;;521285;28;1485;-70
2023/11/24 00:53:34;;;;;;;2.83;1.00;;;;;;;;;;520074;28;828;-70
2023/11/24 00:53:50;;;;;;;2.20;0.95;;;;;;;;;;521200;28;882;-71
2023/11/24 00:54:05;;;;;;;2.07;1.00;;;;;;;;;;521707;28;930;-71
2023/11/24 00:54:20;;;;;;;1.90;1.00;;;;;;;;;;520023;28;1429;-70
2023/11/24 00:54:36;;;;;;;1.87;1.10;;;;;;;;;;520607;28;1365;-70
2023/11/24 00:54:51;;;;;;;2.27;1.00;;;;;;;;;;521698;28;918;-72
2023/11/24 00:55:07;;;;;;;2.92;1.00;;;;;;;;;;519697;28;859;-71
2023/11/24 00:55:23;;;;;;;2.45;1.02;;;;;;;;;;517281;28;1981;-70
2023/11/24 00:55:38;;;;;;;1.93;1.00;;;;;;;;;;517406;28;1647;-71
2023/11/24 00:55:54;;;;;;;2.13;1.05;;;;;;;;;;517473;28;1762;-71
2023/11/24 00:56:09;;;;;;;3.20;1.23;;;;;;;;;;517970;28;1152;-70
2023/11/24 00:56:24;;;;;;;2.95;1.25;;;;;;;;;;517591;28;1357;-71
2023/11/24 00:56:39;;;;;;;2.27;1.20;;;;;;;;;;519508;28;1144;-71
2023/11/24 00:56:55;;;;;;;2.23;1.10;;;;;;;;;;519605;28;1034;-71
2023/11/24 00:57:10;;;;;;;1.80;1.10;;;;;;;;;;519620;28;1040;-71
2023/11/24 00:57:25;;;;;;;2.30;1.08;;;;;;;;;;520683;28;1113;-70
2023/11/24 00:57:41;;;;;;;3.30;1.23;;;;;;;;;;517522;28;1165;-70
2023/11/24 00:57:56;;;;;;;3.17;1.40;;;;;;;;;;517415;28;903;-70
2023/11/24 00:58:12;;;;;;;3.42;1.50;;;;;;;;;;517828;28;835;-71
2023/11/24 00:58:27;;;;;;;4.20;1.50;;;;;;;;;;521102;28;1140;-72
2023/11/24 00:58:43;;;;;;;4.40;1.55;;;;;;;;;;520518;28;1327;-72
2023/11/24 00:58:59;;;;;;;5.90;2.00;;;;;;;;;;519437;28;1105;-74
2023/11/24 00:59:14;;;;;;;5.93;2.10;;;;;;;;;;519190;28;1993;-74
2023/11/24 00:59:31;;;;;;;5.30;1.90;;;;;;;;;;519230;28;1172;-73
2023/11/24 00:59:46;;;;;;;4.88;1.90;;;;;;;;;;519610;28;875;-73
2023/11/24 01:00:06;;;;;;;4.20;1.75;;;;;;;;;;517722;28;843;-73
2023/11/24 01:00:23;;;;;;;4.63;1.63;;;;;;;;;;518691;28;1360;-73
2023/11/24 01:00:38;;;;;;;3.78;1.48;;;;;;;;;;520809;28;879;-73
2023/11/24 01:00:53;;;;;;;4.13;1.50;;;;;;;;;;521678;28;1131;-73
2023/11/24 01:01:11;;;;;;;4.57;1.50;;;;;;;;;;521669;28;799;-73
2023/11/24 01:01:26;;;;;;;4.55;1.50;;;;;;;;;;524621;28;1127;-73
2023/11/24 01:01:42;;;;;;;5.23;1.60;;;;;;;;;;525888;28;826;-73
2023/11/24 01:01:57;;;;;;;5.30;1.60;;;;;;;;;;523283;28;1143;-73
2023/11/24 01:02:13;;;;;;;4.75;1.40;;;;;;;;;;523896;28;934;-73
2023/11/24 01:02:28;;;;;;;4.55;1.35;;;;;;;;;;523669;28;1135;-73
2023/11/24 01:02:44;;;;;;;3.57;1.30;;;;;;;;;;521106;28;1829;-73
2023/11/24 01:03:00;;;;;;;4.18;1.50;;;;;;;;;;521354;28;954;-73
2023/11/24 01:03:15;;;;;;;5.30;1.50;;;;;;;;;;519507;28;1155;-73
2023/11/24 01:03:31;;;;;;;4.23;1.37;;;;;;;;;;520564;28;2000;-73
2023/11/24 01:03:46;;;;;;;5.40;1.73;;;;;;;;;;518407;28;914;-73
2023/11/24 01:04:01;;;;;;;9.15;2.20;;;;;;;;;;520419;28;1681;-73
2023/11/24 01:04:17;;;;;;;8.73;1.77;;;;;;;;;;521837;28;1107;-72
2023/11/24 01:04:32;;;;;;;6.05;1.60;;;;;;;;;;521635;28;1909;-72
2023/11/24 01:04:47;;;;;;;4.77;1.63;;;;;;;;;;521567;28;847;-73
2023/11/24 01:05:04;;;;;;;5.43;1.60;;;;;;;;;;521656;28;824;-72
2023/11/24 01:05:19;;;;;;;5.65;1.65;;;;;;;;;;521895;28;977;-72
2023/11/24 01:05:35;;;;;;;5.33;1.63;;;;;;;;;;523798;28;1035;-73
2023/11/24 01:05:51;;;;;;;5.65;1.67;;;;;;;;;;524106;28;1967;-72
2023/11/24 01:06:07;;;;;;;5.57;1.60;;;;;;;;;;525352;28;1074;-72
2023/11/24 01:06:22;;;;;;;5.13;1.70;;;;;;;;;;524833;28;942;-72
2023/11/24 01:06:38;;;;;;;5.47;1.93;;;;;;;;;;525828;28;823;-73
2023/11/24 01:06:53;;;;;;;7.68;1.80;;;;;;;;;;525916;28;839;-73
2023/11/24 01:07:09;;;;;;;7.27;1.60;;;;;;;;;;525971;28;921;-73
2023/11/24 01:07:25;;;;;;;5.75;1.75;;;;;;;;;;524225;28;1059;-73
2023/11/24 01:07:40;;;;;;;5.82;1.92;;;;;;;;;;518818;28;2152;-73
2023/11/24 01:07:55;;;;;;;5.93;1.90;;;;;;;;;;520519;28;1848;-72
2023/11/24 01:08:10;;;;;;;5.70;1.80;;;;;;;;;;521275;28;1785;-73
2023/11/24 01:08:26;;;;;;;6.70;1.67;;;;;;;;;;521552;28;1185;-72
2023/11/24 01:08:41;;;;;;;6.07;1.40;;;;;;;;;;521602;28;834;-73
2023/11/24 01:08:56;;;;;;;5.13;1.63;;;;;;;;;;519274;28;1823;-72
2023/11/24 01:09:12;;;;;;;5.40;1.80;;;;;;;;;;518886;28;1485;-72
2023/11/24 01:09:27;;;;;;;5.63;1.73;;;;;;;;;;517693;28;1243;-72
2023/11/24 01:09:43;;;;;;;6.10;1.90;;;;;;;;;;517263;28;820;-72
2023/11/24 01:09:58;;;;;;;6.45;1.90;;;;;;;;;;517681;28;827;-73
2023/11/24 01:10:13;;;;;;;6.00;1.77;;;;;;;;;;518884;28;1238;-72
2023/11/24 01:10:28;;;;;;;8.33;1.80;;;;;;;;;;521300;28;1303;-72
2023/11/24 01:10:44;;;;;;;9.10;2.00;;;;;;;;;;522570;28;1218;-72
2023/11/24 01:11:01;;;;;;;6.67;1.90;;;;;;;;;;521487;28;811;-73
2023/11/24 01:11:17;;;;;;;5.97;1.70;;;;;;;;;;521626;28;1028;-72
2023/11/24 01:11:33;;;;;;;6.13;1.85;;;;;;;;;;521817;28;902;-72
2023/11/24 01:11:48;;;;;;;6.37;1.90;;;;;;;;;;521432;28;859;-72
2023/11/24 01:12:05;;;;;;;5.95;1.70;;;;;;;;;;521525;28;928;-72
2023/11/24 01:12:20;;;;;;;6.63;1.70;;;;;;;;;;522271;28;1158;-72
2023/11/24 01:12:35;;;;;;;6.43;2.03;;;;;;;;;;524637;28;997;-72
2023/11/24 01:12:53;;;;;;;6.80;2.17;;;;;;;;;;525791;28;866;-72
2023/11/24 01:13:09;;;;;;;6.82;1.88;;;;;;;;;;525463;28;1740;-72
2023/11/24 01:13:24;;;;;;;6.10;1.77;;;;;;;;;;522196;28;1199;-72
2023/11/24 01:13:40;;;;;;;6.18;1.70;;;;;;;;;;521656;28;862;-71
2023/11/24 01:13:55;;;;;;;6.47;1.77;;;;;;;;;;520791;28;875;-72
2023/11/24 01:14:10;;;;;;;5.97;1.70;;;;;;;;;;521661;28;889;-72
2023/11/24 01:14:25;;;;;;;6.07;1.60;;;;;;;;;;522909;28;1390;-73
2023/11/24 01:14:41;;;;;;;6.43;1.73;;;;;;;;;;523721;28;1136;-72
2023/11/24 01:14:56;;;;;;;6.27;1.80;;;;;;;;;;523565;28;1297;-72
2023/11/24 01:15:12;;;;;;;6.77;1.80;;;;;;;;;;523627;28;949;-72
2023/11/24 01:15:28;;;;;;;7.35;1.90;;;;;;;;;;523525;28;1056;-72
2023/11/24 01:15:43;;;;;;;7.20;1.83;;;;;;;;;;524009;28;724;-71
2023/11/24 01:15:58;;;;;;;7.13;1.90;;;;;;;;;;523816;28;854;-72
2023/11/24 01:16:14;;;;;;;6.60;1.83;;;;;;;;;;523895;28;965;-72
2023/11/24 01:16:29;;;;;;;7.05;2.15;;;;;;;;;;523477;28;1154;-72
2023/11/24 01:16:45;;;;;;;9.13;2.37;;;;;;;;;;523470;28;898;-72
2023/11/24 01:17:00;;;;;;;8.97;2.20;;;;;;;;;;522205;28;1249;-72
2023/11/24 01:17:16;;;;;;;8.97;2.37;;;;;;;;;;521352;28;1310;-72
2023/11/24 01:17:31;;;;;;;10.05;2.50;;;;;;;;;;523677;28;917;-72
2023/11/24 01:17:46;;;;;;;9.60;2.40;;;;;;;;;;523676;28;1062;-72
2023/11/24 01:18:02;;;;;;;9.68;2.40;;;;;;;;;;523781;28;870;-72
2023/11/24 01:18:18;;;;;;;9.67;2.37;;;;;;;;;;523566;28;1146;-72
2023/11/24 01:18:36;;;;;;;8.73;2.08;;;;;;;;;;523733;28;909;-72
2023/11/24 01:18:52;;;;;;;9.57;2.33;;;;;;;;;;521778;28;1777;-72
2023/11/24 01:19:07;;;;;;;10.13;2.55;;;;;;;;;;523706;28;815;-72
2023/11/24 01:19:23;;;;;;;9.47;2.37;;;;;;;;;;522287;28;1331;-71
2023/11/24 01:19:38;;;;;;;8.77;2.30;;;;;;;;;;523789;28;882;-71
2023/11/24 01:19:54;;;;;;;9.03;2.37;;;;;;;;;;520008;28;1275;-71
2023/11/24 01:20:09;;;;;;;8.97;2.30;;;;;;;;;;517505;28;1267;-72
2023/11/24 01:20:25;;;;;;;10.85;2.53;;;;;;;;;;518739;28;1132;-72
2023/11/24 01:20:41;;;;;;;12.10;2.70;;;;;;;;;;519535;28;1427;-72
2023/11/24 01:20:56;;;;;;;10.52;2.63;;;;;;;;;;518074;28;1005;-71
2023/11/24 01:21:12;;;;;;;9.63;2.70;;;;;;;;;;517324;28;2305;-71
2023/11/24 01:21:27;;;;;;;8.93;2.47;;;;;;;;;;521013;28;1038;-71
2023/11/24 01:21:43;;;;;;;8.70;2.20;;;;;;;;;;520966;28;1705;-71
2023/11/24 01:21:58;;;;;;;9.77;2.40;;;;;;;;;;521962;28;733;-71
2023/11/24 01:22:15;;;;;;;8.73;2.20;;;;;;;;;;523788;28;819;-72
2023/11/24 01:22:30;;;;;;;8.95;2.28;;;;;;;;;;521619;28;907;-71
2023/11/24 01:22:45;;;;;;;9.13;2.28;;;;;;;;;;521653;28;957;-72
2023/11/24 01:23:01;;;;;;;9.50;2.20;;;;;;;;;;523350;28;1089;-71
2023/11/24 01:23:16;;;;;;;11.07;2.43;;;;;;;;;;523866;28;1155;-71
2023/11/24 01:23:31;;;;;;;10.63;2.58;;;;;;;;;;523605;28;1623;-71
2023/11/24 01:23:46;;;;;;;9.90;2.60;;;;;;;;;;523388;28;891;-72
2023/11/24 01:24:02;;;;;;;9.43;2.60;;;;;;;;;;520162;28;1782;-71
2023/11/24 01:24:18;;;;;;;10.35;2.63;;;;;;;;;;521490;28;964;-71
2023/11/24 01:24:33;;;;;;;13.67;3.00;;;;;;;;;;521656;28;831;-71
2023/11/24 01:24:48;;;;;;;12.48;2.97;;;;;;;;;;521449;28;902;-71
2023/11/24 01:25:05;;;;;;;11.03;2.70;;;;;;;;;;521648;28;1152;-71
2023/11/24 01:25:21;;;;;;;11.45;2.60;;;;;;;;;;522272;28;1096;-71
2023/11/24 01:25:36;;;;;;;12.35;2.75;;;;;;;;;;523579;28;1298;-71
2023/11/24 01:25:53;;;;;;;11.63;2.77;;;;;;;;;;523530;28;1940;-71
2023/11/24 01:26:11;;;;;;;9.30;2.50;;;;;;;;;;520305;28;1354;-71
2023/11/24 01:26:26;;;;;;;8.88;2.30;;;;;;;;;;519465;28;1088;-72
2023/11/24 01:26:42;;;;;;;9.37;2.40;;;;;;;;;;519188;28;978;-71
2023/11/24 01:26:57;;;;;;;9.55;2.47;;;;;;;;;;517671;28;1370;-71
2023/11/24 01:27:12;;;;;;;12.17;2.63;;;;;;;;;;517576;28;1263;-71
2023/11/24 01:27:28;;;;;;;12.10;2.67;;;;;;;;;;518255;28;1053;-71
2023/11/24 01:27:43;;;;;;;11.45;2.85;;;;;;;;;;519343;28;847;-71
2023/11/24 01:27:59;;;;;;;10.13;2.60;;;;;;;;;;519194;28;1841;-71
2023/11/24 01:28:14;;;;;;;9.50;2.40;;;;;;;;;;521106;28;957;-72
2023/11/24 01:28:30;;;;;;;11.63;2.70;;;;;;;;;;520828;28;1069;-71
2023/11/24 01:28:45;;;;;;;11.88;2.85;;;;;;;;;;519259;28;1273;-72
2023/11/24 01:29:02;;;;;;;10.77;2.70;;;;;;;;;;521254;28;1030;-71
2023/11/24 01:29:17;;;;;;;9.45;2.80;;;;;;;;;;519976;28;1143;-71
2023/11/24 01:29:32;;;;;;;10.73;2.87;;;;;;;;;;521683;28;895;-71
2023/11/24 01:29:49;;;;;;;11.80;2.77;;;;;;;;;;521210;28;859;-71
2023/11/24 01:30:09;;;;;;;10.68;2.70;;;;;;;;;;521309;28;894;-71
2023/11/24 01:30:25;;;;;;;10.65;2.50;;;;;;;;;;522046;28;1056;-71
2023/11/24 01:30:40;;;;;;;12.43;2.90;;;;;;;;;;523609;28;1179;-71
2023/11/24 01:30:56;;;;;;;12.27;2.83;;;;;;;;;;523727;28;779;-72
2023/11/24 01:31:11;;;;;;;10.70;2.47;;;;;;;;;;521621;28;1298;-71
2023/11/24 01:31:30;;;;;;;10.43;2.40;;;;;;;;;;519264;28;1270;-72
2023/11/24 01:31:45;;;;;;;10.90;2.40;;;;;;;;;;519558;28;1129;-71
2023/11/24 01:32:00;;;;;;;10.37;2.40;;;;;;;;;;519070;28;913;-71
2023/11/24 01:32:15;;;;;;;12.93;2.57;;;;;;;;;;519622;28;1060;-72
2023/11/24 01:32:31;;;;;;;14.70;2.70;;;;;;;;;;518622;28;1788;-71
2023/11/24 01:32:46;;;;;;;13.80;2.90;;;;;;;;;;517314;28;1196;-71
2023/11/24 01:33:02;;;;;;;11.47;2.80;;;;;;;;;;517857;28;1120;-71
2023/11/24 01:33:17;;;;;;;10.07;2.67;;;;;;;;;;518692;28;1104;-71
2023/11/24 01:33:33;;;;;;;11.53;2.50;;;;;;;;;;523847;28;838;-72
2023/11/24 01:33:49;;;;;;;11.63;2.33;;;;;;;;;;521197;28;799;-71
2023/11/24 01:34:04;;;;;;;10.73;2.45;;;;;;;;;;521463;28;921;-71
2023/11/24 01:34:19;;;;;;;11.67;2.70;;;;;;;;;;521568;28;1065;-72
2023/11/24 01:34:35;;;;;;;11.27;2.65;;;;;;;;;;521785;28;1093;-72
2023/11/24 01:34:51;;;;;;;10.00;2.38;;;;;;;;;;523967;28;842;-71
2023/11/24 01:35:07;;;;;;;10.07;2.45;;;;;;;;;;523835;28;854;-71
2023/11/24 01:35:22;;;;;;;11.30;2.67;;;;;;;;;;522472;28;1167;-72
2023/11/24 01:35:37;;;;;;;9.98;2.50;;;;;;;;;;523734;28;929;-72
2023/11/24 01:35:55;;;;;;;8.70;2.13;;;;;;;;;;523623;28;1081;-71
2023/11/24 01:36:11;;;;;;;10.45;2.45;;;;;;;;;;523454;28;933;-71
2023/11/24 01:36:26;;;;;;;10.43;2.47;;;;;;;;;;522075;28;1063;-71
2023/11/24 01:36:44;;;;;;;9.93;2.50;;;;;;;;;;521323;28;803;-71
2023/11/24 01:36:59;;;;;;;9.82;2.40;;;;;;;;;;521593;28;1029;-71
2023/11/24 01:37:15;;;;;;;10.03;2.50;;;;;;;;;;522518;28;1071;-72
2023/11/24 01:37:30;;;;;;;9.70;2.40;;;;;;;;;;525933;28;921;-71
2023/11/24 01:37:45;;;;;;;11.37;2.37;;;;;;;;;;525941;28;909;-71